sensor_id;sensor_type;location;lat;lon;timestamp;P1;durP1;ratioP1;P2;durP2;ratioP2
52838;SDS011;39219;53.678;9.856;2023-01-10T00:01:42;31.52;;;11.10;;
52838;SDS011;39219;53.678;9.856;2023-01-10T00:04:08;31.40;;;11.10;;
52838;SDS011;39219;53.678;9.856;2023-01-10T00:06:34;29.33;;;10.82;;
52838;SDS011;39219;53.678;9.856;2023-01-10T00:09:00;28.35;;;11.10;;
52838;SDS011;39219;53.678;9.856;2023-01-10T00:11:28;26.42;;;10.57;;
52838;SDS011;39219;53.678;9.856;2023-01-10T00:14:12;31.70;;;10.27;;
52838;SDS011;39219;53.678;9.856;2023-01-10T00:16:38;26.98;;;10.73;;
52838;SDS011;39219;53.678;9.856;2023-01-10T00:19:06;30.77;;;11.38;;
52838;SDS011;39219;53.678;9.856;2023-01-10T00:21:34;25.77;;;9.35;;
52838;SDS011;39219;53.678;9.856;2023-01-10T00:24:00;25.42;;;9.85;;
52838;SDS011;39219;53.678;9.856;2023-01-10T00:26:42;29.33;;;9.80;;
52838;SDS011;39219;53.678;9.856;2023-01-10T00:29:11;30.08;;;9.32;;
52838;SDS011;39219;53.678;9.856;2023-01-10T00:31:38;25.00;;;9.70;;
52838;SDS011;39219;53.678;9.856;2023-01-10T00:34:04;26.85;;;9.63;;
52838;SDS011;39219;53.678;9.856;2023-01-10T00:36:31;28.17;;;9.20;;
52838;SDS011;39219;53.678;9.856;2023-01-10T00:38:58;24.58;;;9.40;;
52838;SDS011;39219;53.678;9.856;2023-01-10T00:41:24;26.95;;;9.70;;
52838;SDS011;39219;53.678;9.856;2023-01-10T00:44:09;24.85;;;9.18;;
52838;SDS011;39219;53.678;9.856;2023-01-10T00:46:36;26.00;;;8.82;;
52838;SDS011;39219;53.678;9.856;2023-01-10T00:49:02;23.10;;;8.05;;
52838;SDS011;39219;53.678;9.856;2023-01-10T00:51:33;22.45;;;8.18;;
52838;SDS011;39219;53.678;9.856;2023-01-10T00:54:00;24.25;;;8.35;;
52838;SDS011;39219;53.678;9.856;2023-01-10T00:56:26;27.00;;;8.30;;
52838;SDS011;39219;53.678;9.856;2023-01-10T00:58:52;21.17;;;8.07;;
52838;SDS011;39219;53.678;9.856;2023-01-10T01:01:20;21.38;;;7.90;;
52838;SDS011;39219;53.678;9.856;2023-01-10T01:03:46;24.20;;;7.82;;
52838;SDS011;39219;53.678;9.856;2023-01-10T01:06:12;19.33;;;7.78;;
52838;SDS011;39219;53.678;9.856;2023-01-10T01:08:38;22.20;;;7.28;;
52838;SDS011;39219;53.678;9.856;2023-01-10T01:11:05;27.02;;;7.43;;
52838;SDS011;39219;53.678;9.856;2023-01-10T01:13:31;20.38;;;7.22;;
52838;SDS011;39219;53.678;9.856;2023-01-10T01:15:58;26.05;;;8.07;;
52838;SDS011;39219;53.678;9.856;2023-01-10T01:18:25;20.48;;;7.40;;
52838;SDS011;39219;53.678;9.856;2023-01-10T01:20:52;21.52;;;7.70;;
52838;SDS011;39219;53.678;9.856;2023-01-10T01:23:20;24.52;;;7.43;;
52838;SDS011;39219;53.678;9.856;2023-01-10T01:25:48;23.73;;;8.07;;
52838;SDS011;39219;53.678;9.856;2023-01-10T01:28:14;25.40;;;8.10;;
52838;SDS011;39219;53.678;9.856;2023-01-10T01:30:41;25.35;;;8.48;;
52838;SDS011;39219;53.678;9.856;2023-01-10T01:33:07;26.85;;;7.75;;
52838;SDS011;39219;53.678;9.856;2023-01-10T01:35:35;24.85;;;7.95;;
52838;SDS011;39219;53.678;9.856;2023-01-10T01:38:01;22.35;;;8.45;;
52838;SDS011;39219;53.678;9.856;2023-01-10T01:40:27;29.58;;;8.57;;
52838;SDS011;39219;53.678;9.856;2023-01-10T01:42:54;29.73;;;8.95;;
52838;SDS011;39219;53.678;9.856;2023-01-10T01:48:08;24.73;;;8.70;;
52838;SDS011;39219;53.678;9.856;2023-01-10T01:50:39;24.80;;;8.25;;
52838;SDS011;39219;53.678;9.856;2023-01-10T01:53:07;24.73;;;8.55;;
52838;SDS011;39219;53.678;9.856;2023-01-10T01:55:35;23.83;;;7.95;;
52838;SDS011;39219;53.678;9.856;2023-01-10T01:58:02;22.05;;;7.90;;
52838;SDS011;39219;53.678;9.856;2023-01-10T02:00:31;18.23;;;7.15;;
52838;SDS011;39219;53.678;9.856;2023-01-10T02:02:59;23.33;;;7.93;;
52838;SDS011;39219;53.678;9.856;2023-01-10T02:05:26;24.95;;;7.88;;
52838;SDS011;39219;53.678;9.856;2023-01-10T02:07:54;20.15;;;7.55;;
52838;SDS011;39219;53.678;9.856;2023-01-10T02:10:22;21.02;;;7.32;;
52838;SDS011;39219;53.678;9.856;2023-01-10T02:12:51;23.30;;;7.25;;
52838;SDS011;39219;53.678;9.856;2023-01-10T02:15:18;21.80;;;6.88;;
52838;SDS011;39219;53.678;9.856;2023-01-10T02:17:45;20.33;;;6.85;;
52838;SDS011;39219;53.678;9.856;2023-01-10T02:20:13;23.58;;;7.20;;
52838;SDS011;39219;53.678;9.856;2023-01-10T02:22:52;21.42;;;6.90;;
52838;SDS011;39219;53.678;9.856;2023-01-10T02:25:45;19.58;;;7.03;;
52838;SDS011;39219;53.678;9.856;2023-01-10T02:28:22;18.35;;;6.28;;
52838;SDS011;39219;53.678;9.856;2023-01-10T02:31:00;18.70;;;6.43;;
52838;SDS011;39219;53.678;9.856;2023-01-10T02:33:34;15.85;;;6.30;;
52838;SDS011;39219;53.678;9.856;2023-01-10T02:36:08;22.83;;;6.53;;
52838;SDS011;39219;53.678;9.856;2023-01-10T02:38:40;19.08;;;6.70;;
52838;SDS011;39219;53.678;9.856;2023-01-10T02:41:08;14.73;;;6.18;;
52838;SDS011;39219;53.678;9.856;2023-01-10T02:43:40;19.67;;;5.88;;
52838;SDS011;39219;53.678;9.856;2023-01-10T02:46:10;19.77;;;6.47;;
52838;SDS011;39219;53.678;9.856;2023-01-10T02:48:40;19.63;;;6.25;;
52838;SDS011;39219;53.678;9.856;2023-01-10T02:51:07;15.27;;;5.72;;
52838;SDS011;39219;53.678;9.856;2023-01-10T02:53:38;18.95;;;6.07;;
52838;SDS011;39219;53.678;9.856;2023-01-10T02:56:16;19.13;;;6.20;;
52838;SDS011;39219;53.678;9.856;2023-01-10T02:58:50;17.38;;;6.03;;
52838;SDS011;39219;53.678;9.856;2023-01-10T03:01:20;21.58;;;6.15;;
52838;SDS011;39219;53.678;9.856;2023-01-10T03:03:50;17.63;;;5.82;;
52838;SDS011;39219;53.678;9.856;2023-01-10T03:06:19;20.05;;;5.70;;
52838;SDS011;39219;53.678;9.856;2023-01-10T03:08:49;19.75;;;5.70;;
52838;SDS011;39219;53.678;9.856;2023-01-10T03:11:16;19.67;;;5.78;;
52838;SDS011;39219;53.678;9.856;2023-01-10T03:14:02;20.02;;;5.63;;
52838;SDS011;39219;53.678;9.856;2023-01-10T03:16:29;15.48;;;5.50;;
52838;SDS011;39219;53.678;9.856;2023-01-10T03:18:59;17.15;;;5.57;;
52838;SDS011;39219;53.678;9.856;2023-01-10T03:21:27;21.48;;;5.80;;
52838;SDS011;39219;53.678;9.856;2023-01-10T03:23:55;13.88;;;4.97;;
52838;SDS011;39219;53.678;9.856;2023-01-10T03:26:25;20.38;;;5.57;;
52838;SDS011;39219;53.678;9.856;2023-01-10T03:28:54;13.27;;;4.93;;
52838;SDS011;39219;53.678;9.856;2023-01-10T03:31:23;23.35;;;5.20;;
52838;SDS011;39219;53.678;9.856;2023-01-10T03:33:51;15.55;;;4.90;;
52838;SDS011;39219;53.678;9.856;2023-01-10T03:36:22;20.45;;;5.07;;
52838;SDS011;39219;53.678;9.856;2023-01-10T03:38:53;16.20;;;5.45;;
52838;SDS011;39219;53.678;9.856;2023-01-10T03:41:22;19.13;;;5.43;;
52838;SDS011;39219;53.678;9.856;2023-01-10T03:43:51;15.90;;;5.45;;
52838;SDS011;39219;53.678;9.856;2023-01-10T03:46:38;19.98;;;5.20;;
52838;SDS011;39219;53.678;9.856;2023-01-10T03:49:06;16.48;;;4.97;;
52838;SDS011;39219;53.678;9.856;2023-01-10T03:51:35;18.77;;;5.53;;
52838;SDS011;39219;53.678;9.856;2023-01-10T03:54:03;18.15;;;5.18;;
52838;SDS011;39219;53.678;9.856;2023-01-10T03:56:29;18.30;;;5.10;;
52838;SDS011;39219;53.678;9.856;2023-01-10T03:58:55;18.52;;;5.45;;
52838;SDS011;39219;53.678;9.856;2023-01-10T04:01:22;15.35;;;5.47;;
52838;SDS011;39219;53.678;9.856;2023-01-10T04:03:48;16.30;;;4.95;;
52838;SDS011;39219;53.678;9.856;2023-01-10T04:06:15;16.15;;;4.85;;
52838;SDS011;39219;53.678;9.856;2023-01-10T04:08:43;21.27;;;4.97;;
52838;SDS011;39219;53.678;9.856;2023-01-10T04:11:09;14.00;;;4.95;;
52838;SDS011;39219;53.678;9.856;2023-01-10T04:13:35;17.73;;;4.90;;
52838;SDS011;39219;53.678;9.856;2023-01-10T04:16:02;16.80;;;4.93;;
52838;SDS011;39219;53.678;9.856;2023-01-10T04:18:28;17.60;;;5.05;;
52838;SDS011;39219;53.678;9.856;2023-01-10T04:20:54;15.55;;;4.57;;
52838;SDS011;39219;53.678;9.856;2023-01-10T04:23:20;18.63;;;4.70;;
52838;SDS011;39219;53.678;9.856;2023-01-10T04:25:48;15.52;;;4.53;;
52838;SDS011;39219;53.678;9.856;2023-01-10T04:28:14;15.75;;;4.63;;
52838;SDS011;39219;53.678;9.856;2023-01-10T04:30:40;14.15;;;4.57;;
52838;SDS011;39219;53.678;9.856;2023-01-10T04:33:07;13.90;;;4.53;;
52838;SDS011;39219;53.678;9.856;2023-01-10T04:35:35;14.85;;;4.60;;
52838;SDS011;39219;53.678;9.856;2023-01-10T04:38:01;14.50;;;4.65;;
52838;SDS011;39219;53.678;9.856;2023-01-10T04:40:28;15.05;;;4.50;;
52838;SDS011;39219;53.678;9.856;2023-01-10T04:42:55;16.63;;;4.55;;
52838;SDS011;39219;53.678;9.856;2023-01-10T04:45:21;13.80;;;4.38;;
52838;SDS011;39219;53.678;9.856;2023-01-10T04:47:48;19.27;;;4.55;;
52838;SDS011;39219;53.678;9.856;2023-01-10T04:50:15;16.25;;;4.38;;
52838;SDS011;39219;53.678;9.856;2023-01-10T04:52:42;14.38;;;4.03;;
52838;SDS011;39219;53.678;9.856;2023-01-10T04:55:09;18.45;;;4.88;;
52838;SDS011;39219;53.678;9.856;2023-01-10T04:57:35;14.80;;;4.30;;
52838;SDS011;39219;53.678;9.856;2023-01-10T05:00:03;15.00;;;4.28;;
52838;SDS011;39219;53.678;9.856;2023-01-10T05:02:29;20.60;;;4.07;;
52838;SDS011;39219;53.678;9.856;2023-01-10T05:04:56;16.90;;;4.03;;
52838;SDS011;39219;53.678;9.856;2023-01-10T05:07:22;18.30;;;4.60;;
52838;SDS011;39219;53.678;9.856;2023-01-10T05:09:48;11.38;;;3.60;;
52838;SDS011;39219;53.678;9.856;2023-01-10T05:12:14;18.40;;;4.15;;
52838;SDS011;39219;53.678;9.856;2023-01-10T05:14:41;14.55;;;3.80;;
52838;SDS011;39219;53.678;9.856;2023-01-10T05:17:08;11.57;;;3.67;;
52838;SDS011;39219;53.678;9.856;2023-01-10T05:19:34;18.17;;;3.88;;
52838;SDS011;39219;53.678;9.856;2023-01-10T05:22:01;16.83;;;4.13;;
52838;SDS011;39219;53.678;9.856;2023-01-10T05:24:27;11.95;;;3.80;;
52838;SDS011;39219;53.678;9.856;2023-01-10T05:26:53;14.25;;;3.83;;
52838;SDS011;39219;53.678;9.856;2023-01-10T05:29:19;15.82;;;3.70;;
52838;SDS011;39219;53.678;9.856;2023-01-10T05:31:46;14.98;;;3.75;;
52838;SDS011;39219;53.678;9.856;2023-01-10T05:34:13;12.40;;;3.80;;
52838;SDS011;39219;53.678;9.856;2023-01-10T05:36:40;17.65;;;3.38;;
52838;SDS011;39219;53.678;9.856;2023-01-10T05:39:06;14.15;;;3.78;;
52838;SDS011;39219;53.678;9.856;2023-01-10T05:41:32;14.57;;;3.92;;
52838;SDS011;39219;53.678;9.856;2023-01-10T05:43:58;14.57;;;3.88;;
52838;SDS011;39219;53.678;9.856;2023-01-10T05:46:25;14.50;;;3.90;;
52838;SDS011;39219;53.678;9.856;2023-01-10T05:48:51;13.85;;;3.58;;
52838;SDS011;39219;53.678;9.856;2023-01-10T05:51:19;12.70;;;3.53;;
52838;SDS011;39219;53.678;9.856;2023-01-10T05:53:45;16.23;;;3.75;;
52838;SDS011;39219;53.678;9.856;2023-01-10T05:56:11;10.52;;;3.33;;
52838;SDS011;39219;53.678;9.856;2023-01-10T05:58:37;13.43;;;3.70;;
52838;SDS011;39219;53.678;9.856;2023-01-10T06:01:04;14.75;;;3.65;;
52838;SDS011;39219;53.678;9.856;2023-01-10T06:03:30;16.50;;;3.88;;
52838;SDS011;39219;53.678;9.856;2023-01-10T06:05:56;15.82;;;4.30;;
52838;SDS011;39219;53.678;9.856;2023-01-10T06:08:24;12.05;;;3.80;;
52838;SDS011;39219;53.678;9.856;2023-01-10T06:10:50;15.07;;;3.97;;
52838;SDS011;39219;53.678;9.856;2023-01-10T06:13:16;11.88;;;3.72;;
52838;SDS011;39219;53.678;9.856;2023-01-10T06:15:43;14.70;;;3.70;;
52838;SDS011;39219;53.678;9.856;2023-01-10T06:18:09;15.88;;;4.03;;
52838;SDS011;39219;53.678;9.856;2023-01-10T06:20:35;17.55;;;4.43;;
52838;SDS011;39219;53.678;9.856;2023-01-10T06:23:01;21.15;;;4.32;;
52838;SDS011;39219;53.678;9.856;2023-01-10T06:25:30;20.60;;;4.18;;
52838;SDS011;39219;53.678;9.856;2023-01-10T06:27:56;21.17;;;5.18;;
52838;SDS011;39219;53.678;9.856;2023-01-10T06:30:22;15.65;;;4.50;;
52838;SDS011;39219;53.678;9.856;2023-01-10T06:32:48;21.55;;;4.55;;
52838;SDS011;39219;53.678;9.856;2023-01-10T06:35:15;20.65;;;4.13;;
52838;SDS011;39219;53.678;9.856;2023-01-10T06:37:42;22.55;;;4.30;;
52838;SDS011;39219;53.678;9.856;2023-01-10T06:40:08;18.52;;;3.90;;
52838;SDS011;39219;53.678;9.856;2023-01-10T06:42:36;13.82;;;3.60;;
52838;SDS011;39219;53.678;9.856;2023-01-10T06:45:03;15.52;;;4.25;;
52838;SDS011;39219;53.678;9.856;2023-01-10T06:47:29;16.58;;;3.70;;
52838;SDS011;39219;53.678;9.856;2023-01-10T06:49:55;20.63;;;4.47;;
52838;SDS011;39219;53.678;9.856;2023-01-10T06:52:22;18.73;;;4.30;;
52838;SDS011;39219;53.678;9.856;2023-01-10T06:54:48;21.95;;;5.00;;
52838;SDS011;39219;53.678;9.856;2023-01-10T06:57:17;15.23;;;4.35;;
52838;SDS011;39219;53.678;9.856;2023-01-10T06:59:45;18.27;;;4.28;;
52838;SDS011;39219;53.678;9.856;2023-01-10T07:02:11;18.70;;;4.28;;
52838;SDS011;39219;53.678;9.856;2023-01-10T07:04:37;16.98;;;4.45;;
52838;SDS011;39219;53.678;9.856;2023-01-10T07:07:03;19.92;;;4.70;;
52838;SDS011;39219;53.678;9.856;2023-01-10T07:09:30;13.93;;;4.15;;
52838;SDS011;39219;53.678;9.856;2023-01-10T07:11:56;14.77;;;4.53;;
52838;SDS011;39219;53.678;9.856;2023-01-10T07:14:22;18.38;;;4.38;;
52838;SDS011;39219;53.678;9.856;2023-01-10T07:16:50;18.42;;;4.25;;
52838;SDS011;39219;53.678;9.856;2023-01-10T07:19:16;17.45;;;5.40;;
52838;SDS011;39219;53.678;9.856;2023-01-10T07:21:44;20.42;;;4.55;;
52838;SDS011;39219;53.678;9.856;2023-01-10T07:24:10;16.63;;;4.45;;
52838;SDS011;39219;53.678;9.856;2023-01-10T07:26:36;19.30;;;4.43;;
52838;SDS011;39219;53.678;9.856;2023-01-10T07:29:03;19.10;;;4.32;;
52838;SDS011;39219;53.678;9.856;2023-01-10T07:31:29;22.08;;;4.55;;
52838;SDS011;39219;53.678;9.856;2023-01-10T07:33:57;22.42;;;4.78;;
52838;SDS011;39219;53.678;9.856;2023-01-10T07:36:23;13.93;;;4.65;;
52838;SDS011;39219;53.678;9.856;2023-01-10T07:38:49;17.63;;;4.70;;
52838;SDS011;39219;53.678;9.856;2023-01-10T07:41:15;17.67;;;4.53;;
52838;SDS011;39219;53.678;9.856;2023-01-10T07:43:42;12.10;;;4.15;;
52838;SDS011;39219;53.678;9.856;2023-01-10T07:46:08;21.17;;;5.10;;
52838;SDS011;39219;53.678;9.856;2023-01-10T07:48:36;19.52;;;4.57;;
52838;SDS011;39219;53.678;9.856;2023-01-10T07:51:04;13.82;;;4.65;;
52838;SDS011;39219;53.678;9.856;2023-01-10T07:53:30;14.13;;;4.50;;
52838;SDS011;39219;53.678;9.856;2023-01-10T07:55:57;14.73;;;4.75;;
52838;SDS011;39219;53.678;9.856;2023-01-10T07:58:24;15.77;;;4.60;;
52838;SDS011;39219;53.678;9.856;2023-01-10T08:00:50;19.92;;;4.63;;
52838;SDS011;39219;53.678;9.856;2023-01-10T08:03:17;15.60;;;5.10;;
52838;SDS011;39219;53.678;9.856;2023-01-10T08:05:43;18.42;;;4.97;;
52838;SDS011;39219;53.678;9.856;2023-01-10T08:08:11;20.10;;;4.70;;
52838;SDS011;39219;53.678;9.856;2023-01-10T08:10:38;20.15;;;4.80;;
52838;SDS011;39219;53.678;9.856;2023-01-10T08:13:05;20.70;;;5.15;;
52838;SDS011;39219;53.678;9.856;2023-01-10T08:15:31;20.60;;;5.68;;
52838;SDS011;39219;53.678;9.856;2023-01-10T08:17:58;17.23;;;5.20;;
52838;SDS011;39219;53.678;9.856;2023-01-10T08:20:24;15.93;;;5.20;;
52838;SDS011;39219;53.678;9.856;2023-01-10T08:22:51;28.02;;;5.80;;
52838;SDS011;39219;53.678;9.856;2023-01-10T08:25:18;18.08;;;5.32;;
52838;SDS011;39219;53.678;9.856;2023-01-10T08:27:44;21.27;;;5.68;;
52838;SDS011;39219;53.678;9.856;2023-01-10T08:30:11;19.25;;;5.30;;
52838;SDS011;39219;53.678;9.856;2023-01-10T08:32:37;25.85;;;5.63;;
52838;SDS011;39219;53.678;9.856;2023-01-10T08:35:04;22.00;;;5.35;;
52838;SDS011;39219;53.678;9.856;2023-01-10T08:37:31;21.65;;;5.80;;
52838;SDS011;39219;53.678;9.856;2023-01-10T08:39:57;20.92;;;5.40;;
52838;SDS011;39219;53.678;9.856;2023-01-10T08:42:25;23.27;;;5.88;;
52838;SDS011;39219;53.678;9.856;2023-01-10T08:44:51;19.23;;;5.22;;
52838;SDS011;39219;53.678;9.856;2023-01-10T08:47:18;21.30;;;5.97;;
52838;SDS011;39219;53.678;9.856;2023-01-10T08:49:44;23.25;;;5.93;;
52838;SDS011;39219;53.678;9.856;2023-01-10T08:52:11;15.43;;;5.82;;
52838;SDS011;39219;53.678;9.856;2023-01-10T08:54:37;25.30;;;6.40;;
52838;SDS011;39219;53.678;9.856;2023-01-10T08:57:03;19.02;;;6.78;;
52838;SDS011;39219;53.678;9.856;2023-01-10T08:59:31;22.42;;;6.70;;
52838;SDS011;39219;53.678;9.856;2023-01-10T09:01:57;22.73;;;7.07;;
52838;SDS011;39219;53.678;9.856;2023-01-10T09:04:24;22.98;;;7.15;;
52838;SDS011;39219;53.678;9.856;2023-01-10T09:06:51;20.58;;;6.95;;
52838;SDS011;39219;53.678;9.856;2023-01-10T09:09:17;23.83;;;6.78;;
52838;SDS011;39219;53.678;9.856;2023-01-10T09:11:43;21.30;;;6.40;;
52838;SDS011;39219;53.678;9.856;2023-01-10T09:14:09;23.08;;;6.47;;
52838;SDS011;39219;53.678;9.856;2023-01-10T09:16:37;23.65;;;7.68;;
52838;SDS011;39219;53.678;9.856;2023-01-10T09:19:03;23.95;;;7.10;;
52838;SDS011;39219;53.678;9.856;2023-01-10T09:21:30;21.98;;;6.82;;
52838;SDS011;39219;53.678;9.856;2023-01-10T09:23:56;22.08;;;7.35;;
52838;SDS011;39219;53.678;9.856;2023-01-10T09:26:22;22.92;;;7.63;;
52838;SDS011;39219;53.678;9.856;2023-01-10T09:28:48;20.70;;;7.03;;
52838;SDS011;39219;53.678;9.856;2023-01-10T09:31:15;18.48;;;7.25;;
52838;SDS011;39219;53.678;9.856;2023-01-10T09:33:42;21.40;;;7.30;;
52838;SDS011;39219;53.678;9.856;2023-01-10T09:36:11;24.17;;;7.40;;
52838;SDS011;39219;53.678;9.856;2023-01-10T09:38:39;20.17;;;7.05;;
52838;SDS011;39219;53.678;9.856;2023-01-10T09:41:11;22.15;;;6.93;;
52838;SDS011;39219;53.678;9.856;2023-01-10T09:43:43;21.50;;;6.78;;
52838;SDS011;39219;53.678;9.856;2023-01-10T09:46:11;18.67;;;7.32;;
52838;SDS011;39219;53.678;9.856;2023-01-10T09:48:41;20.02;;;7.40;;
52838;SDS011;39219;53.678;9.856;2023-01-10T09:51:15;22.08;;;7.18;;
52838;SDS011;39219;53.678;9.856;2023-01-10T09:53:45;24.30;;;8.07;;
52838;SDS011;39219;53.678;9.856;2023-01-10T09:56:12;25.45;;;8.15;;
52838;SDS011;39219;53.678;9.856;2023-01-10T09:58:39;18.17;;;8.13;;
52838;SDS011;39219;53.678;9.856;2023-01-10T10:01:07;19.38;;;7.72;;
52838;SDS011;39219;53.678;9.856;2023-01-10T10:03:35;19.90;;;8.35;;
52838;SDS011;39219;53.678;9.856;2023-01-10T10:06:03;23.85;;;8.63;;
52838;SDS011;39219;53.678;9.856;2023-01-10T10:08:31;23.83;;;9.10;;
52838;SDS011;39219;53.678;9.856;2023-01-10T10:10:59;27.35;;;9.18;;
52838;SDS011;39219;53.678;9.856;2023-01-10T10:13:32;25.02;;;9.88;;
52838;SDS011;39219;53.678;9.856;2023-01-10T10:16:02;22.05;;;9.82;;
52838;SDS011;39219;53.678;9.856;2023-01-10T10:18:35;21.60;;;9.25;;
52838;SDS011;39219;53.678;9.856;2023-01-10T10:21:05;28.15;;;9.93;;
52838;SDS011;39219;53.678;9.856;2023-01-10T10:23:43;23.85;;;10.02;;
52838;SDS011;39219;53.678;9.856;2023-01-10T10:26:12;25.90;;;10.18;;
52838;SDS011;39219;53.678;9.856;2023-01-10T10:28:56;30.13;;;10.95;;
52838;SDS011;39219;53.678;9.856;2023-01-10T10:31:28;25.95;;;11.73;;
52838;SDS011;39219;53.678;9.856;2023-01-10T10:33:59;28.17;;;11.85;;
52838;SDS011;39219;53.678;9.856;2023-01-10T10:36:29;24.80;;;11.45;;
52838;SDS011;39219;53.678;9.856;2023-01-10T10:39:01;28.92;;;12.05;;
52838;SDS011;39219;53.678;9.856;2023-01-10T10:41:29;25.65;;;11.63;;
52838;SDS011;39219;53.678;9.856;2023-01-10T10:43:57;23.83;;;11.50;;
52838;SDS011;39219;53.678;9.856;2023-01-10T10:46:28;23.77;;;11.85;;
52838;SDS011;39219;53.678;9.856;2023-01-10T10:48:55;26.10;;;12.02;;
52838;SDS011;39219;53.678;9.856;2023-01-10T10:51:22;26.98;;;11.68;;
52838;SDS011;39219;53.678;9.856;2023-01-10T10:53:50;26.63;;;10.63;;
52838;SDS011;39219;53.678;9.856;2023-01-10T10:56:20;24.67;;;10.23;;
52838;SDS011;39219;53.678;9.856;2023-01-10T10:58:47;25.73;;;10.32;;
52838;SDS011;39219;53.678;9.856;2023-01-10T11:01:15;24.80;;;10.43;;
52838;SDS011;39219;53.678;9.856;2023-01-10T11:03:43;25.52;;;11.40;;
52838;SDS011;39219;53.678;9.856;2023-01-10T11:06:10;23.27;;;10.52;;
52838;SDS011;39219;53.678;9.856;2023-01-10T11:08:38;24.77;;;11.13;;
52838;SDS011;39219;53.678;9.856;2023-01-10T11:11:09;27.17;;;10.70;;
52838;SDS011;39219;53.678;9.856;2023-01-10T11:13:45;26.02;;;10.32;;
52838;SDS011;39219;53.678;9.856;2023-01-10T11:16:22;27.35;;;10.55;;
52838;SDS011;39219;53.678;9.856;2023-01-10T11:18:52;27.65;;;10.73;;
52838;SDS011;39219;53.678;9.856;2023-01-10T11:21:33;23.58;;;10.23;;
52838;SDS011;39219;53.678;9.856;2023-01-10T11:24:00;21.73;;;10.38;;
52838;SDS011;39219;53.678;9.856;2023-01-10T11:26:26;23.17;;;10.10;;
52838;SDS011;39219;53.678;9.856;2023-01-10T11:29:03;27.23;;;10.98;;
52838;SDS011;39219;53.678;9.856;2023-01-10T11:31:30;26.63;;;10.90;;
52838;SDS011;39219;53.678;9.856;2023-01-10T11:33:57;26.75;;;11.23;;
52838;SDS011;39219;53.678;9.856;2023-01-10T11:36:24;23.65;;;11.02;;
52838;SDS011;39219;53.678;9.856;2023-01-10T11:38:57;23.98;;;10.43;;
52838;SDS011;39219;53.678;9.856;2023-01-10T11:41:24;26.13;;;11.15;;
52838;SDS011;39219;53.678;9.856;2023-01-10T11:43:55;28.58;;;11.48;;
52838;SDS011;39219;53.678;9.856;2023-01-10T11:46:43;28.73;;;11.85;;
52838;SDS011;39219;53.678;9.856;2023-01-10T11:49:10;28.13;;;11.05;;
52838;SDS011;39219;53.678;9.856;2023-01-10T11:51:43;26.60;;;10.77;;
52838;SDS011;39219;53.678;9.856;2023-01-10T11:54:10;28.88;;;11.13;;
52838;SDS011;39219;53.678;9.856;2023-01-10T11:56:38;30.58;;;11.63;;
52838;SDS011;39219;53.678;9.856;2023-01-10T11:59:06;27.77;;;11.15;;
52838;SDS011;39219;53.678;9.856;2023-01-10T12:01:38;24.48;;;11.20;;
52838;SDS011;39219;53.678;9.856;2023-01-10T12:04:07;27.73;;;10.90;;
52838;SDS011;39219;53.678;9.856;2023-01-10T12:06:40;24.25;;;10.43;;
52838;SDS011;39219;53.678;9.856;2023-01-10T12:09:13;29.73;;;11.25;;
52838;SDS011;39219;53.678;9.856;2023-01-10T12:12:00;24.67;;;10.30;;
52838;SDS011;39219;53.678;9.856;2023-01-10T12:14:26;27.48;;;10.73;;
52838;SDS011;39219;53.678;9.856;2023-01-10T12:16:57;25.95;;;11.05;;
52838;SDS011;39219;53.678;9.856;2023-01-10T12:19:25;32.13;;;11.50;;
52838;SDS011;39219;53.678;9.856;2023-01-10T12:21:52;26.42;;;10.77;;
52838;SDS011;39219;53.678;9.856;2023-01-10T12:24:20;26.95;;;10.95;;
52838;SDS011;39219;53.678;9.856;2023-01-10T12:26:47;27.35;;;11.30;;
52838;SDS011;39219;53.678;9.856;2023-01-10T12:29:15;27.50;;;11.20;;
52838;SDS011;39219;53.678;9.856;2023-01-10T12:31:42;25.02;;;10.73;;
52838;SDS011;39219;53.678;9.856;2023-01-10T12:34:11;25.20;;;10.95;;
52838;SDS011;39219;53.678;9.856;2023-01-10T12:36:42;25.92;;;10.63;;
52838;SDS011;39219;53.678;9.856;2023-01-10T12:39:12;24.48;;;10.70;;
52838;SDS011;39219;53.678;9.856;2023-01-10T12:41:45;25.98;;;10.35;;
52838;SDS011;39219;53.678;9.856;2023-01-10T12:44:29;26.35;;;9.95;;
52838;SDS011;39219;53.678;9.856;2023-01-10T12:46:59;26.95;;;10.27;;
52838;SDS011;39219;53.678;9.856;2023-01-10T12:49:27;25.30;;;9.73;;
52838;SDS011;39219;53.678;9.856;2023-01-10T12:51:57;22.98;;;9.75;;
52838;SDS011;39219;53.678;9.856;2023-01-10T12:54:25;26.52;;;9.35;;
52838;SDS011;39219;53.678;9.856;2023-01-10T12:56:52;20.00;;;9.00;;
52838;SDS011;39219;53.678;9.856;2023-01-10T12:59:19;22.67;;;8.85;;
52838;SDS011;39219;53.678;9.856;2023-01-10T13:01:48;24.63;;;8.88;;
52838;SDS011;39219;53.678;9.856;2023-01-10T13:04:17;26.35;;;9.50;;
52838;SDS011;39219;53.678;9.856;2023-01-10T13:06:46;24.17;;;8.50;;
52838;SDS011;39219;53.678;9.856;2023-01-10T13:09:15;20.83;;;8.57;;
52838;SDS011;39219;53.678;9.856;2023-01-10T13:11:44;20.60;;;8.50;;
52838;SDS011;39219;53.678;9.856;2023-01-10T13:14:13;24.23;;;8.63;;
52838;SDS011;39219;53.678;9.856;2023-01-10T13:16:44;23.60;;;8.10;;
52838;SDS011;39219;53.678;9.856;2023-01-10T13:19:22;21.05;;;8.85;;
52838;SDS011;39219;53.678;9.856;2023-01-10T13:21:48;24.02;;;7.88;;
52838;SDS011;39219;53.678;9.856;2023-01-10T13:24:18;19.73;;;8.82;;
52838;SDS011;39219;53.678;9.856;2023-01-10T13:26:47;23.40;;;8.25;;
52838;SDS011;39219;53.678;9.856;2023-01-10T13:29:16;22.15;;;8.73;;
52838;SDS011;39219;53.678;9.856;2023-01-10T13:31:43;21.33;;;8.82;;
52838;SDS011;39219;53.678;9.856;2023-01-10T13:34:10;18.30;;;8.18;;
52838;SDS011;39219;53.678;9.856;2023-01-10T13:36:37;23.70;;;8.82;;
52838;SDS011;39219;53.678;9.856;2023-01-10T13:39:05;24.05;;;8.70;;
52838;SDS011;39219;53.678;9.856;2023-01-10T13:44:29;23.40;;;9.35;;
52838;SDS011;39219;53.678;9.856;2023-01-10T13:46:55;25.75;;;10.63;;
52838;SDS011;39219;53.678;9.856;2023-01-10T14:03:36;27.63;;;10.90;;
52838;SDS011;39219;53.678;9.856;2023-01-10T14:06:04;24.98;;;10.98;;
52838;SDS011;39219;53.678;9.856;2023-01-10T14:08:32;27.70;;;10.98;;
52838;SDS011;39219;53.678;9.856;2023-01-10T14:11:03;24.45;;;11.43;;
52838;SDS011;39219;53.678;9.856;2023-01-10T14:13:30;26.50;;;11.25;;
52838;SDS011;39219;53.678;9.856;2023-01-10T14:15:56;24.67;;;10.88;;
52838;SDS011;39219;53.678;9.856;2023-01-10T14:18:23;26.63;;;10.98;;
52838;SDS011;39219;53.678;9.856;2023-01-10T14:20:55;25.90;;;10.98;;
52838;SDS011;39219;53.678;9.856;2023-01-10T14:23:24;24.85;;;10.30;;
52838;SDS011;39219;53.678;9.856;2023-01-10T14:25:52;27.25;;;11.23;;
52838;SDS011;39219;53.678;9.856;2023-01-10T14:28:20;28.92;;;11.02;;
52838;SDS011;39219;53.678;9.856;2023-01-10T14:30:51;23.92;;;9.95;;
52838;SDS011;39219;53.678;9.856;2023-01-10T14:33:21;29.35;;;10.18;;
52838;SDS011;39219;53.678;9.856;2023-01-10T14:35:49;22.75;;;10.02;;
52838;SDS011;39219;53.678;9.856;2023-01-10T14:38:17;23.48;;;9.68;;
52838;SDS011;39219;53.678;9.856;2023-01-10T14:40:45;22.75;;;9.30;;
52838;SDS011;39219;53.678;9.856;2023-01-10T14:43:14;24.42;;;9.88;;
52838;SDS011;39219;53.678;9.856;2023-01-10T14:45:43;24.42;;;9.30;;
52838;SDS011;39219;53.678;9.856;2023-01-10T14:48:16;22.55;;;9.30;;
52838;SDS011;39219;53.678;9.856;2023-01-10T14:50:43;24.35;;;9.32;;
52838;SDS011;39219;53.678;9.856;2023-01-10T14:53:13;28.02;;;8.50;;
52838;SDS011;39219;53.678;9.856;2023-01-10T14:55:51;22.42;;;8.63;;
52838;SDS011;39219;53.678;9.856;2023-01-10T14:58:17;25.08;;;8.65;;